createdAt,value
2022-08-29T00:02:07.928Z,9.55
2022-08-29T00:04:36.410Z,9.88
2022-08-29T00:07:04.868Z,11.25
2022-08-29T00:09:33.211Z,9.90
2022-08-29T00:12:02.928Z,10.75
2022-08-29T00:14:31.468Z,9.73
2022-08-29T00:17:01.172Z,10.48
2022-08-29T00:19:29.995Z,11.55
2022-08-29T00:21:58.892Z,11.80
2022-08-29T00:24:27.540Z,12.00
2022-08-29T00:26:55.709Z,11.88
2022-08-29T00:29:25.376Z,11.23
2022-08-29T00:31:53.887Z,11.05
2022-08-29T00:34:22.383Z,10.13
2022-08-29T00:36:51.636Z,10.20
2022-08-29T00:39:23.242Z,8.95
2022-08-29T00:41:52.011Z,9.77
2022-08-29T00:44:20.341Z,9.40
2022-08-29T00:46:53.679Z,9.30
2022-08-29T00:49:30.174Z,8.95
2022-08-29T00:51:59.689Z,8.88
2022-08-29T00:54:28.368Z,9.05
2022-08-29T00:56:57.500Z,8.98
2022-08-29T00:59:31.334Z,9.43
2022-08-29T01:02:01.142Z,8.40
2022-08-29T01:04:30.107Z,9.90
2022-08-29T01:06:58.812Z,8.55
2022-08-29T01:09:28.407Z,9.68
2022-08-29T01:12:14.283Z,9.85
2022-08-29T01:14:48.299Z,9.13
2022-08-29T01:17:21.830Z,10.48
2022-08-29T01:19:55.975Z,10.25
2022-08-29T01:22:42.475Z,9.27
2022-08-29T01:25:16.361Z,9.32
2022-08-29T01:27:51.839Z,8.70
2022-08-29T01:30:20.763Z,9.20
2022-08-29T01:32:49.043Z,11.38
2022-08-29T01:35:17.353Z,10.95
2022-08-29T01:37:45.644Z,11.30
2022-08-29T01:40:15.420Z,13.05
2022-08-29T01:42:44.434Z,11.70
2022-08-29T01:45:12.991Z,13.55
2022-08-29T01:47:41.356Z,14.27
2022-08-29T01:50:12.835Z,15.57
2022-08-29T01:52:42.972Z,16.05
2022-08-29T01:55:11.764Z,15.55
2022-08-29T01:57:41.743Z,15.77
2022-08-29T02:00:13.090Z,16.88
2022-08-29T02:02:43.067Z,16.85
2022-08-29T02:05:11.909Z,15.10
2022-08-29T02:07:40.488Z,15.98
2022-08-29T02:10:09.664Z,15.93
2022-08-29T02:12:37.952Z,15.13
2022-08-29T02:15:08.980Z,14.02
2022-08-29T02:17:37.631Z,12.88
2022-08-29T02:20:08.424Z,14.30
2022-08-29T02:22:37.118Z,13.50
2022-08-29T02:25:28.191Z,13.38
2022-08-29T02:27:58.616Z,12.98
2022-08-29T02:30:28.535Z,12.98
2022-08-29T02:32:56.860Z,11.63
2022-08-29T02:35:25.976Z,10.63
2022-08-29T02:37:56.368Z,11.23
2022-08-29T02:40:31.866Z,10.90
2022-08-29T02:43:00.776Z,9.40
2022-08-29T02:45:30.727Z,11.05
2022-08-29T02:47:59.534Z,10.20
2022-08-29T02:50:27.908Z,9.20
2022-08-29T02:52:56.628Z,10.65
2022-08-29T02:55:26.015Z,11.20
2022-08-29T02:57:55.230Z,9.30
2022-08-29T03:00:27.504Z,10.82
2022-08-29T03:02:57.963Z,9.85
2022-08-29T03:05:29.359Z,9.25
2022-08-29T03:07:58.521Z,9.15
2022-08-29T03:10:27.615Z,8.30
2022-08-29T03:12:56.482Z,9.10
2022-08-29T03:15:25.413Z,9.82
2022-08-29T03:17:54.208Z,8.65
2022-08-29T03:20:25.254Z,8.77
2022-08-29T03:22:55.105Z,9.40
2022-08-29T03:25:25.480Z,8.45
2022-08-29T03:27:53.898Z,8.55
2022-08-29T03:30:23.998Z,8.55
2022-08-29T03:32:52.602Z,8.15
2022-08-29T03:35:21.787Z,8.48
2022-08-29T03:37:52.391Z,9.30
2022-08-29T03:40:21.079Z,9.00
2022-08-29T03:42:49.618Z,9.45
2022-08-29T03:45:19.538Z,9.68
2022-08-29T03:47:47.905Z,9.70
2022-08-29T03:50:19.385Z,9.18
2022-08-29T03:52:47.898Z,8.25
2022-08-29T03:55:19.705Z,8.30
2022-08-29T03:57:48.473Z,7.45
2022-08-29T04:00:18.818Z,8.20
2022-08-29T04:02:49.474Z,8.68
2022-08-29T04:05:19.189Z,9.20
2022-08-29T04:07:50.057Z,7.95
2022-08-29T04:10:22.237Z,9.38
2022-08-29T04:12:54.440Z,8.30
2022-08-29T04:15:23.548Z,7.25
2022-08-29T04:17:54.451Z,7.10
2022-08-29T04:20:25.621Z,9.00
2022-08-29T04:22:55.401Z,7.43
2022-08-29T04:25:27.327Z,7.97
2022-08-29T04:27:56.797Z,7.60
2022-08-29T04:30:28.136Z,7.68
2022-08-29T04:32:56.524Z,7.88
2022-08-29T04:35:24.773Z,8.18
2022-08-29T04:37:53.155Z,7.18
2022-08-29T04:40:24.481Z,7.88
2022-08-29T04:42:52.960Z,7.80
2022-08-29T04:45:25.156Z,9.40
2022-08-29T04:47:53.567Z,10.55
2022-08-29T04:50:24.081Z,10.20
2022-08-29T04:52:53.444Z,10.13
2022-08-29T04:55:25.519Z,10.52
2022-08-29T04:57:57.625Z,10.48
2022-08-29T05:00:30.426Z,10.80
2022-08-29T05:02:59.771Z,11.35
2022-08-29T05:05:29.008Z,10.68
2022-08-29T05:07:57.225Z,9.85
2022-08-29T05:10:26.385Z,10.05
2022-08-29T05:12:56.287Z,10.10
2022-08-29T05:15:24.579Z,9.25
2022-08-29T05:17:53.267Z,9.60
2022-08-29T05:20:23.151Z,9.40
2022-08-29T05:22:51.516Z,10.43
2022-08-29T05:25:19.835Z,9.32
2022-08-29T05:27:48.566Z,9.10
2022-08-29T05:30:32.144Z,11.90
2022-08-29T05:33:03.482Z,10.75
2022-08-29T05:35:32.032Z,9.68
2022-08-29T05:38:00.237Z,10.60
2022-08-29T05:40:28.687Z,9.10
2022-08-29T05:42:57.499Z,9.45
2022-08-29T05:45:27.139Z,9.98
2022-08-29T05:47:56.015Z,7.90
2022-08-29T05:50:24.602Z,8.70
2022-08-29T05:52:52.968Z,9.55
2022-08-29T05:55:21.264Z,11.52
2022-08-29T05:57:51.768Z,9.52
2022-08-29T06:00:20.480Z,7.90
2022-08-29T06:02:51.098Z,5.32
2022-08-29T06:05:19.589Z,4.63
2022-08-29T06:07:48.436Z,4.53
2022-08-29T06:10:16.665Z,4.20
2022-08-29T06:12:44.879Z,3.57
2022-08-29T06:15:13.143Z,3.17
2022-08-29T06:17:41.280Z,2.90
2022-08-29T06:20:12.831Z,3.27
2022-08-29T06:22:41.220Z,3.07
2022-08-29T06:25:28.357Z,2.93
2022-08-29T06:27:58.216Z,3.30
2022-08-29T06:30:26.613Z,3.77
2022-08-29T06:32:54.944Z,3.03
2022-08-29T06:35:24.692Z,2.73
2022-08-29T06:37:53.426Z,3.27
2022-08-29T06:40:21.568Z,2.80
2022-08-29T06:42:49.798Z,2.63
2022-08-29T06:45:18.348Z,2.70
2022-08-29T06:47:48.419Z,3.20
2022-08-29T06:50:17.171Z,3.00
2022-08-29T06:52:47.083Z,3.00
2022-08-29T06:55:15.746Z,2.70
2022-08-29T06:57:45.918Z,3.53
2022-08-29T07:00:21.814Z,2.67
2022-08-29T07:02:52.891Z,2.77
2022-08-29T07:05:22.483Z,3.40
2022-08-29T07:07:53.149Z,3.60
2022-08-29T07:10:22.769Z,3.40
2022-08-29T07:12:51.783Z,3.10
2022-08-29T07:15:20.803Z,2.80
2022-08-29T07:17:49.125Z,2.97
2022-08-29T07:20:18.258Z,3.83
2022-08-29T07:22:51.248Z,4.20
2022-08-29T07:25:22.537Z,3.80
2022-08-29T07:27:53.404Z,3.13
2022-08-29T07:30:21.999Z,3.50
2022-08-29T07:32:50.188Z,3.20
2022-08-29T07:35:29.585Z,2.70
2022-08-29T07:38:01.335Z,3.20
2022-08-29T07:40:31.379Z,3.40
2022-08-29T07:42:59.624Z,3.00
2022-08-29T07:45:27.765Z,3.13
2022-08-29T07:47:56.155Z,3.80
2022-08-29T07:50:24.348Z,2.83
2022-08-29T07:52:52.923Z,3.13
2022-08-29T07:55:22.970Z,3.73
2022-08-29T07:57:54.027Z,3.30
2022-08-29T08:00:22.300Z,3.23
2022-08-29T08:02:51.390Z,3.17
2022-08-29T08:05:20.148Z,3.37
2022-08-29T08:07:55.550Z,3.17
2022-08-29T08:10:24.787Z,2.70
2022-08-29T08:12:54.327Z,3.87
2022-08-29T08:15:22.923Z,3.17
2022-08-29T08:17:51.068Z,3.60
2022-08-29T08:20:19.390Z,3.50
2022-08-29T08:22:47.508Z,2.90
2022-08-29T08:25:15.931Z,3.17
2022-08-29T08:27:44.030Z,3.47
2022-08-29T08:30:14.897Z,2.90
2022-08-29T08:32:46.865Z,3.70
2022-08-29T08:35:16.720Z,3.30
2022-08-29T08:37:45.284Z,3.30
2022-08-29T08:40:22.137Z,3.37
2022-08-29T08:42:50.625Z,3.30
2022-08-29T08:45:22.986Z,3.60
2022-08-29T08:47:54.452Z,3.43
2022-08-29T08:50:29.479Z,2.93
2022-08-29T08:53:00.807Z,3.10
2022-08-29T08:55:40.653Z,3.47
2022-08-29T08:58:19.117Z,2.37
2022-08-29T09:01:04.952Z,3.63
2022-08-29T09:04:04.571Z,3.07
2022-08-29T09:06:46.028Z,3.27
2022-08-29T09:09:25.435Z,3.60
2022-08-29T09:12:03.036Z,3.67
2022-08-29T09:14:46.268Z,3.17
2022-08-29T09:17:21.804Z,3.60
2022-08-29T09:19:51.414Z,3.60
2022-08-29T09:22:26.649Z,4.03
2022-08-29T09:25:03.671Z,3.17
2022-08-29T09:27:33.934Z,3.43
2022-08-29T09:30:08.100Z,4.03
2022-08-29T09:32:54.569Z,3.87
2022-08-29T09:35:26.590Z,3.37
2022-08-29T09:37:59.723Z,3.60
2022-08-29T09:40:44.093Z,4.90
2022-08-29T09:43:19.914Z,3.60
2022-08-29T10:08:56.682Z,12.50
2022-08-29T10:11:30.824Z,4.10
2022-08-29T10:14:03.425Z,4.10
2022-08-29T10:16:40.113Z,3.30
2022-08-29T10:19:15.368Z,4.53
2022-08-29T10:21:54.766Z,3.23
2022-08-29T10:24:34.982Z,3.57
2022-08-29T10:27:12.305Z,3.83
2022-08-29T10:30:05.136Z,3.60
2022-08-29T10:32:45.436Z,3.73
2022-08-29T10:35:20.710Z,3.10
2022-08-29T10:37:55.179Z,3.07
2022-08-29T10:40:29.504Z,3.30
2022-08-29T10:43:20.203Z,3.30
2022-08-29T10:46:07.653Z,3.27
2022-08-29T10:48:40.731Z,3.33
2022-08-29T10:51:22.568Z,3.40
2022-08-29T10:53:56.019Z,2.93
2022-08-29T10:56:29.580Z,3.20
2022-08-29T10:59:07.041Z,3.27
2022-08-29T11:01:41.608Z,2.80
2022-08-29T11:04:18.480Z,2.77
2022-08-29T11:06:56.661Z,2.80
2022-08-29T11:09:29.204Z,3.20
2022-08-29T11:12:06.470Z,3.07
2022-08-29T11:14:39.390Z,2.90
2022-08-29T11:17:10.179Z,2.90
2022-08-29T11:19:58.620Z,3.03
2022-08-29T11:22:32.681Z,3.30
2022-08-29T11:25:06.074Z,3.33
2022-08-29T11:27:45.074Z,3.40
2022-08-29T11:30:18.712Z,3.13
2022-08-29T11:32:57.375Z,3.50
2022-08-29T11:35:30.200Z,3.03
2022-08-29T11:38:36.996Z,3.93
2022-08-29T11:41:28.443Z,3.27
2022-08-29T11:44:09.407Z,3.20
2022-08-29T11:46:41.006Z,3.00
2022-08-29T11:49:29.587Z,3.40
2022-08-29T11:52:02.191Z,2.53
2022-08-29T11:55:18.810Z,3.13
2022-08-29T11:57:53.632Z,3.20
2022-08-29T12:00:42.641Z,3.50
2022-08-29T12:03:53.836Z,2.60
2022-08-29T12:06:27.658Z,2.40
2022-08-29T12:09:04.625Z,2.40
2022-08-29T12:12:10.441Z,2.80
2022-08-29T12:14:42.279Z,3.40
2022-08-29T12:17:58.307Z,3.30
2022-08-29T12:20:43.300Z,3.27
2022-08-29T12:23:25.880Z,2.70
2022-08-29T12:26:15.937Z,2.97
2022-08-29T12:28:48.862Z,3.13
2022-08-29T12:32:02.149Z,3.07
2022-08-29T12:34:46.242Z,2.80
2022-08-29T12:37:33.653Z,2.77
2022-08-29T12:40:22.520Z,2.93
2022-08-29T12:43:08.293Z,3.20
2022-08-29T12:45:39.386Z,2.83
2022-08-29T12:48:15.560Z,2.50
2022-08-29T12:50:48.197Z,2.70
2022-08-29T12:53:23.394Z,2.67
2022-08-29T12:55:54.721Z,2.37
2022-08-29T12:58:40.484Z,2.60
2022-08-29T13:01:21.277Z,2.87
2022-08-29T13:03:59.220Z,2.20
2022-08-29T13:06:27.917Z,3.17
2022-08-29T13:08:56.147Z,2.50
2022-08-29T13:11:26.639Z,2.33
2022-08-29T13:14:05.967Z,3.10
2022-08-29T13:16:34.516Z,3.00
2022-08-29T13:19:12.027Z,2.60
2022-08-29T13:21:40.335Z,2.63
2022-08-29T13:24:12.792Z,2.57
2022-08-29T13:27:03.263Z,2.30
2022-08-29T13:29:38.934Z,2.90
2022-08-29T13:32:18.309Z,2.50
2022-08-29T13:35:04.965Z,2.47
2022-08-29T13:37:35.284Z,2.53
2022-08-29T13:40:29.493Z,2.23
2022-08-29T13:42:59.120Z,2.80
2022-08-29T13:45:28.115Z,2.20
2022-08-29T13:48:04.480Z,2.10
2022-08-29T13:50:34.181Z,2.23
2022-08-29T13:53:02.512Z,2.33
2022-08-29T13:55:30.857Z,2.23
2022-08-29T13:57:59.090Z,2.60
2022-08-29T14:00:34.748Z,2.50
2022-08-29T14:03:05.627Z,2.87
2022-08-29T14:05:36.477Z,2.43
2022-08-29T14:08:06.758Z,2.43
2022-08-29T14:10:35.445Z,2.30
2022-08-29T14:13:04.097Z,2.27
2022-08-29T14:15:32.702Z,1.90
2022-08-29T14:18:01.097Z,2.60
2022-08-29T14:20:29.340Z,2.50
2022-08-29T14:22:59.077Z,2.20
2022-08-29T14:25:27.853Z,2.47
2022-08-29T14:27:56.077Z,2.60
2022-08-29T14:30:25.874Z,2.40
2022-08-29T14:32:54.021Z,2.13
2022-08-29T14:35:26.072Z,2.43
2022-08-29T14:37:55.791Z,2.20
2022-08-29T14:40:28.750Z,2.00
2022-08-29T14:42:58.127Z,2.00
2022-08-29T14:45:26.564Z,2.40
2022-08-29T14:47:55.002Z,2.50
2022-08-29T14:50:24.181Z,2.80
2022-08-29T14:52:52.525Z,2.43
2022-08-29T14:55:22.052Z,2.80
2022-08-29T14:57:51.874Z,2.80
2022-08-29T15:00:23.045Z,2.70
2022-08-29T15:02:51.639Z,2.93
2022-08-29T15:05:20.048Z,2.50
2022-08-29T15:07:48.408Z,2.80
2022-08-29T15:10:19.397Z,2.33
2022-08-29T15:12:47.772Z,2.60
2022-08-29T15:15:18.034Z,2.40
2022-08-29T15:17:46.362Z,3.30
2022-08-29T15:20:35.713Z,2.90
2022-08-29T15:23:04.322Z,2.93
2022-08-29T15:25:32.865Z,2.40
2022-08-29T15:28:01.186Z,2.73
2022-08-29T15:30:30.940Z,2.73
2022-08-29T15:32:59.340Z,2.43
2022-08-29T15:35:27.579Z,2.13
2022-08-29T15:37:55.775Z,2.53
2022-08-29T15:40:24.750Z,3.00
2022-08-29T15:42:53.133Z,2.40
2022-08-29T15:45:22.742Z,2.53
2022-08-29T15:47:53.860Z,2.63
2022-08-29T15:50:23.641Z,2.40
2022-08-29T15:52:52.259Z,2.63
2022-08-29T15:55:20.667Z,2.20
2022-08-29T15:57:51.561Z,2.33
2022-08-29T16:00:29.883Z,2.53
2022-08-29T16:03:02.924Z,2.00
2022-08-29T16:05:31.978Z,2.30
2022-08-29T16:08:00.612Z,2.40
2022-08-29T16:10:29.427Z,2.23
2022-08-29T16:12:57.761Z,2.33
2022-08-29T16:15:27.852Z,1.93
2022-08-29T16:17:56.116Z,1.77
2022-08-29T16:20:26.006Z,1.50
2022-08-29T16:22:54.451Z,2.17
2022-08-29T16:25:23.933Z,1.90
2022-08-29T16:27:52.397Z,2.20
2022-08-29T16:30:21.053Z,2.33
2022-08-29T16:32:50.675Z,2.40
2022-08-29T16:35:20.226Z,2.40
2022-08-29T16:38:02.654Z,2.30
2022-08-29T16:40:32.413Z,2.53
2022-08-29T16:43:01.685Z,2.80
2022-08-29T16:45:29.916Z,2.93
2022-08-29T16:47:58.059Z,2.37
2022-08-29T16:50:27.292Z,3.13
2022-08-29T16:52:57.280Z,3.40
2022-08-29T16:55:25.917Z,2.40
2022-08-29T16:58:07.937Z,3.30
2022-08-29T17:00:36.508Z,3.23
2022-08-29T17:03:04.716Z,2.87
2022-08-29T17:05:33.010Z,3.50
2022-08-29T17:08:01.464Z,3.17
2022-08-29T17:10:28.548Z,2.97
2022-08-29T17:12:55.712Z,3.33
2022-08-29T17:15:22.976Z,3.17
2022-08-29T17:17:51.178Z,2.77
2022-08-29T17:20:20.337Z,2.67
2022-08-29T17:22:48.690Z,3.10
2022-08-29T17:25:18.507Z,3.27
2022-08-29T17:28:14.155Z,3.10
2022-08-29T17:30:36.725Z,3.30
2022-08-29T17:33:05.520Z,2.67
2022-08-29T17:35:33.627Z,3.20
2022-08-29T17:38:02.096Z,3.00
2022-08-29T17:40:33.681Z,3.53
2022-08-29T17:43:04.616Z,3.40
2022-08-29T17:45:33.069Z,3.50
2022-08-29T17:48:02.349Z,3.30
2022-08-29T17:50:30.808Z,3.60
2022-08-29T17:52:59.060Z,3.33
2022-08-29T17:55:27.585Z,3.50
2022-08-29T17:58:00.082Z,3.80
2022-08-29T18:00:28.864Z,4.10
2022-08-29T18:02:57.097Z,3.70
2022-08-29T18:05:25.864Z,3.77
2022-08-29T18:07:54.111Z,4.00
2022-08-29T18:10:24.120Z,4.03
2022-08-29T18:12:52.424Z,4.22
2022-08-29T18:15:22.160Z,4.00
2022-08-29T18:17:52.164Z,3.65
2022-08-29T18:20:23.311Z,3.55
2022-08-29T18:22:51.537Z,3.40
2022-08-29T18:25:22.755Z,4.70
2022-08-29T18:27:51.514Z,4.22
2022-08-29T18:30:21.894Z,4.10
2022-08-29T18:32:50.308Z,4.50
2022-08-29T18:35:18.812Z,4.93
2022-08-29T18:37:47.178Z,4.35
2022-08-29T18:40:15.394Z,4.60
2022-08-29T18:42:43.552Z,4.00
2022-08-29T18:45:12.995Z,4.25
2022-08-29T18:47:42.607Z,4.88
2022-08-29T18:50:29.990Z,5.30
2022-08-29T18:52:58.452Z,4.75
2022-08-29T18:55:27.575Z,6.05
2022-08-29T18:57:56.682Z,5.82
2022-08-29T19:00:26.132Z,5.28
2022-08-29T19:02:57.711Z,4.95
2022-08-29T19:05:28.969Z,4.80
2022-08-29T19:07:58.029Z,5.47
2022-08-29T19:10:28.039Z,4.88
2022-08-29T19:12:57.050Z,4.47
2022-08-29T19:15:27.506Z,5.40
2022-08-29T19:17:57.982Z,5.03
2022-08-29T19:20:47.183Z,4.40
2022-08-29T19:23:16.083Z,4.68
2022-08-29T19:25:44.914Z,4.97
2022-08-29T19:28:16.262Z,5.05
2022-08-29T19:30:44.891Z,5.53
2022-08-29T19:33:20.220Z,5.72
2022-08-29T19:35:51.609Z,5.60
2022-08-29T19:38:21.253Z,4.97
2022-08-29T19:40:55.370Z,5.50
2022-08-29T19:43:27.382Z,5.43
2022-08-29T19:45:55.911Z,5.38
2022-08-29T19:48:26.279Z,4.75
2022-08-29T19:50:57.760Z,4.93
2022-08-29T19:53:27.124Z,4.80
2022-08-29T19:55:56.606Z,4.88
2022-08-29T19:58:32.015Z,5.22
2022-08-29T20:01:01.736Z,4.85
2022-08-29T20:03:32.259Z,5.35
2022-08-29T20:06:05.722Z,4.45
2022-08-29T20:08:34.968Z,4.50
2022-08-29T20:11:06.472Z,5.13
2022-08-29T20:13:36.366Z,5.15
2022-08-29T20:16:13.029Z,4.57
2022-08-29T20:18:43.620Z,5.25
2022-08-29T20:21:13.180Z,5.15
2022-08-29T20:23:49.606Z,4.80
2022-08-29T20:26:19.808Z,5.95
2022-08-29T20:28:48.778Z,5.90
2022-08-29T20:31:16.965Z,5.95
2022-08-29T20:33:47.647Z,5.00
2022-08-29T20:36:33.424Z,5.82
2022-08-29T20:39:07.685Z,5.13
2022-08-29T20:41:35.992Z,5.07
2022-08-29T20:44:09.647Z,5.50
2022-08-29T20:46:40.710Z,5.72
2022-08-29T20:49:11.672Z,5.85
2022-08-29T20:51:44.147Z,5.25
2022-08-29T20:54:12.928Z,6.57
2022-08-29T20:56:41.322Z,5.50
2022-08-29T20:59:09.479Z,5.47
2022-08-29T21:01:38.047Z,5.50
2022-08-29T21:04:24.979Z,6.55
2022-08-29T21:06:57.456Z,6.18
2022-08-29T21:09:26.298Z,5.95
2022-08-29T21:11:55.165Z,5.53
2022-08-29T21:14:23.815Z,5.65
2022-08-29T21:16:53.435Z,5.50
2022-08-29T21:19:22.104Z,6.30
2022-08-29T21:21:51.354Z,5.95
2022-08-29T21:24:21.598Z,6.55
2022-08-29T21:26:49.771Z,5.90
2022-08-29T21:29:20.166Z,6.30
2022-08-29T21:31:48.567Z,6.60
2022-08-29T21:34:17.559Z,6.28
2022-08-29T21:36:45.951Z,6.35
2022-08-29T21:39:15.320Z,5.75
2022-08-29T21:41:58.492Z,6.38
2022-08-29T21:44:31.111Z,6.03
2022-08-29T21:46:59.792Z,5.75
2022-08-29T21:49:30.360Z,6.68
2022-08-29T21:51:58.552Z,5.70
2022-08-29T21:54:27.043Z,6.85
2022-08-29T21:56:55.230Z,6.88
2022-08-29T21:59:28.011Z,6.90
2022-08-29T22:01:57.104Z,7.40
2022-08-29T22:04:28.258Z,6.43
2022-08-29T22:06:58.225Z,6.85
2022-08-29T22:09:28.045Z,6.80
2022-08-29T22:11:56.403Z,6.60
2022-08-29T22:14:46.858Z,6.10
2022-08-29T22:17:14.910Z,6.05
2022-08-29T22:19:43.077Z,6.20
2022-08-29T22:22:11.740Z,6.90
2022-08-29T22:24:39.913Z,6.53
2022-08-29T22:27:08.462Z,6.70
2022-08-29T22:29:38.305Z,6.10
2022-08-29T22:32:06.775Z,5.68
2022-08-29T22:34:35.076Z,6.30
2022-08-29T22:37:03.376Z,6.75
2022-08-29T22:39:31.663Z,7.00
2022-08-29T22:41:59.910Z,6.40
2022-08-29T22:45:02.920Z,7.60
2022-08-29T22:47:18.961Z,6.20
2022-08-29T22:49:47.173Z,6.75
2022-08-29T22:52:15.428Z,7.13
2022-08-29T22:54:43.708Z,6.40
2022-08-29T22:57:14.792Z,8.10
2022-08-29T22:59:44.375Z,8.57
2022-08-29T23:02:13.418Z,8.38
2022-08-29T23:04:43.956Z,8.35
2022-08-29T23:07:13.061Z,8.50
2022-08-29T23:09:42.288Z,8.77
2022-08-29T23:12:11.927Z,8.45
2022-08-29T23:14:41.471Z,8.20
2022-08-29T23:17:10.379Z,7.55
2022-08-29T23:19:41.240Z,6.70
2022-08-29T23:22:11.726Z,6.80
2022-08-29T23:24:53.771Z,6.85
2022-08-29T23:27:27.109Z,6.15
2022-08-29T23:29:55.380Z,6.00
2022-08-29T23:32:23.567Z,6.65
2022-08-29T23:34:51.803Z,6.22
2022-08-29T23:37:21.469Z,6.57
2022-08-29T23:39:49.616Z,7.35
2022-08-29T23:42:17.852Z,8.23
2022-08-29T23:44:48.484Z,9.80
2022-08-29T23:47:17.484Z,7.65
2022-08-29T23:49:46.030Z,7.10
2022-08-29T23:52:14.559Z,7.10
2022-08-29T23:54:44.266Z,7.22
2022-08-29T23:57:12.384Z,7.32
2022-08-29T23:59:57.859Z,6.97
